Time;durP1;ratioP1;P1;durP2;ratioP2;P2;SDS_P1;SDS_P2;PMS_P1;PMS_P2;Temp;Humidity;BMP_temperature;BMP_pressure;BME280_temperature;BME280_humidity;BME280_pressure;Samples;Min_cycle;Max_cycle;Signal;HPM_P1;HPM_P2
2022/11/25 00:00:51;;;;;;;13.38;3.05;;;7.50;99.90;;;;;;5114219;27;20074;-67
2022/11/25 00:03:17;;;;;;;15.63;3.15;;;7.50;99.90;;;;;;5115192;27;20049;-68
2022/11/25 00:05:43;;;;;;;12.93;2.75;;;7.50;99.90;;;;;;5116093;27;20039;-67
2022/11/25 00:08:08;;;;;;;10.52;2.65;;;7.50;99.90;;;;;;5108447;27;20047;-68
2022/11/25 00:10:34;;;;;;;16.33;2.90;;;7.50;99.90;;;;;;5114199;27;20051;-67
2022/11/25 00:13:00;;;;;;;11.68;2.28;;;7.50;99.90;;;;;;5113673;27;20096;-68
2022/11/25 00:15:25;;;;;;;14.82;2.80;;;7.50;99.90;;;;;;5113459;27;20386;-68
2022/11/25 00:17:51;;;;;;;15.77;3.40;;;7.60;99.90;;;;;;5114468;27;20042;-68
2022/11/25 00:20:20;;;;;;;14.25;2.33;;;7.60;99.90;;;;;;5112666;27;20473;-68
2022/11/25 00:22:45;;;;;;;15.38;2.67;;;7.60;99.90;;;;;;5093921;27;20043;-68
2022/11/25 00:25:11;;;;;;;15.05;2.70;;;7.60;99.90;;;;;;5095343;27;20095;-67
2022/11/25 00:27:37;;;;;;;16.85;2.58;;;7.60;99.90;;;;;;5115913;27;20133;-67
2022/11/25 00:30:03;;;;;;;15.65;3.22;;;7.70;99.90;;;;;;5111738;27;20039;-68
2022/11/25 00:32:28;;;;;;;14.75;4.18;;;7.70;99.90;;;;;;5110310;27;20043;-68
2022/11/25 00:34:54;;;;;;;15.88;3.25;;;7.70;99.90;;;;;;5110794;27;20084;-68
2022/11/25 00:37:20;;;;;;;15.07;2.88;;;7.70;99.90;;;;;;5115417;27;20031;-68
2022/11/25 00:39:45;;;;;;;11.90;3.03;;;7.70;99.90;;;;;;5128082;27;20039;-68
2022/11/25 00:44:55;;;;;;;12.85;2.58;;;7.70;99.90;;;;;;5113755;27;20039;-68
2022/11/25 00:47:21;;;;;;;11.70;2.92;;;7.80;99.90;;;;;;5115311;27;20512;-67
2022/11/25 00:49:48;;;;;;;13.52;3.00;;;7.70;99.90;;;;;;5096907;27;20043;-67
2022/11/25 00:52:17;;;;;;;13.98;3.65;;;7.80;99.90;;;;;;5114986;27;20043;-68
2022/11/25 00:54:46;;;;;;;12.65;3.65;;;7.80;99.90;;;;;;5114306;27;20397;-68
2022/11/25 00:57:13;;;;;;;12.05;3.20;;;7.80;99.90;;;;;;5112745;27;20035;-67
2022/11/25 00:59:39;;;;;;;13.68;2.72;;;7.80;99.90;;;;;;5111833;27;20039;-68
2022/11/25 01:02:05;;;;;;;17.33;3.45;;;7.80;99.90;;;;;;5112283;27;20031;-67
2022/11/25 01:04:31;;;;;;;15.77;3.00;;;7.80;99.90;;;;;;5114071;27;20062;-68
2022/11/25 01:06:58;;;;;;;14.55;2.83;;;7.80;99.90;;;;;;5111268;27;20102;-68
2022/11/25 01:09:25;;;;;;;13.70;2.97;;;7.80;99.90;;;;;;5114307;27;20118;-68
2022/11/25 01:11:52;;;;;;;12.27;3.10;;;7.80;99.90;;;;;;5109360;27;20557;-68
2022/11/25 01:14:18;;;;;;;14.45;3.20;;;7.80;99.90;;;;;;5112810;27;20110;-68
2022/11/25 01:16:44;;;;;;;13.25;3.13;;;7.80;99.90;;;;;;5090970;27;20051;-68
2022/11/25 01:19:11;;;;;;;13.27;3.15;;;7.90;99.90;;;;;;5109293;27;20057;-68
2022/11/25 01:21:37;;;;;;;15.80;3.55;;;7.90;99.90;;;;;;5130896;27;20139;-68
2022/11/25 01:24:04;;;;;;;11.38;2.80;;;7.90;99.90;;;;;;5112260;27;20118;-68
2022/11/25 01:26:30;;;;;;;10.35;2.53;;;7.90;99.90;;;;;;5107874;27;21558;-67
2022/11/25 01:29:02;;;;;;;15.45;3.28;;;7.90;99.90;;;;;;5112012;27;20054;-68
2022/11/25 01:31:30;;;;;;;9.18;2.63;;;7.90;99.90;;;;;;5117992;27;20154;-68
2022/11/25 01:33:59;;;;;;;13.57;2.80;;;7.90;99.90;;;;;;5112964;27;20035;-67
2022/11/25 01:36:25;;;;;;;14.07;2.83;;;7.90;99.90;;;;;;5113079;27;20039;-68
2022/11/25 01:38:53;;;;;;;18.55;4.45;;;7.90;99.90;;;;;;5109018;27;20042;-67
2022/11/25 01:41:20;;;;;;;12.55;3.40;;;7.90;99.90;;;;;;5112953;27;20390;-68
2022/11/25 01:44:04;;;;;;;15.38;3.00;;;7.90;99.90;;;;;;5095428;27;20039;-68
2022/11/25 01:46:48;;;;;;;13.75;2.42;;;7.90;99.90;;;;;;5112309;27;20047;-67
2022/11/25 01:49:25;;;;;;;12.60;2.80;;;7.90;99.90;;;;;;5095206;27;20077;-68
2022/11/25 01:52:09;;;;;;;16.20;2.72;;;7.90;99.90;;;;;;5108314;27;20068;-67
2022/11/25 01:54:43;;;;;;;14.35;3.30;;;7.90;99.90;;;;;;5112903;27;20084;-68
2022/11/25 01:57:19;;;;;;;17.50;3.08;;;7.80;99.90;;;;;;5111982;27;20066;-68
2022/11/25 01:59:49;;;;;;;13.43;2.60;;;7.80;99.90;;;;;;5108995;27;20035;-68
2022/11/25 02:02:15;;;;;;;13.30;3.47;;;7.80;99.90;;;;;;5113996;27;20513;-68
2022/11/25 02:04:47;;;;;;;10.60;2.33;;;7.80;99.90;;;;;;5122998;27;1290899;-68
2022/11/25 02:07:28;;;;;;;19.00;3.22;;;7.80;99.90;;;;;;5128597;27;20114;-68
2022/11/25 02:09:55;;;;;;;13.07;3.17;;;7.80;99.90;;;;;;5123893;27;20137;-67
2022/11/25 02:12:21;;;;;;;15.82;3.55;;;7.80;99.90;;;;;;5108007;27;20058;-68
2022/11/25 02:14:49;;;;;;;20.83;4.18;;;7.80;99.90;;;;;;5130349;27;20039;-68
2022/11/25 02:17:15;;;;;;;15.50;3.08;;;7.80;99.90;;;;;;5127189;27;20077;-68
2022/11/25 02:20:03;;;;;;;17.23;3.25;;;7.80;99.90;;;;;;5129264;27;20464;-67
2022/11/25 02:22:59;;;;;;;17.02;3.75;;;7.80;99.90;;;;;;5101192;27;20147;-68
2022/11/25 02:25:32;;;;;;;19.48;3.65;;;7.80;99.90;;;;;;5128528;27;20073;-68
2022/11/25 02:28:04;;;;;;;14.18;3.10;;;7.80;99.90;;;;;;5126459;27;20059;-68
2022/11/25 02:30:29;;;;;;;17.03;3.70;;;7.80;99.90;;;;;;5130572;27;20434;-68
2022/11/25 02:32:57;;;;;;;13.15;3.45;;;7.70;99.90;;;;;;5120738;27;20118;-68
2022/11/25 02:35:27;;;;;;;14.30;3.22;;;7.70;99.90;;;;;;5111874;27;20035;-68
2022/11/25 02:37:57;;;;;;;16.15;4.30;;;7.70;99.90;;;;;;5130496;27;20046;-67
2022/11/25 02:40:24;;;;;;;12.25;3.15;;;7.70;99.90;;;;;;5147941;27;20043;-67
2022/11/25 02:42:51;;;;;;;12.48;3.70;;;7.70;99.90;;;;;;5124461;27;20042;-67
2022/11/25 02:45:21;;;;;;;12.00;3.05;;;7.80;99.90;;;;;;5125242;27;20486;-68
2022/11/25 02:47:47;;;;;;;15.75;3.40;;;7.80;99.90;;;;;;5128648;27;20538;-68
2022/11/25 02:50:12;;;;;;;13.43;3.67;;;7.70;99.90;;;;;;5145076;27;20035;-68
2022/11/25 02:52:38;;;;;;;12.70;4.00;;;7.80;99.90;;;;;;5128416;27;20385;-67
2022/11/25 02:55:04;;;;;;;17.02;4.03;;;7.80;99.90;;;;;;5128082;27;20031;-68
2022/11/25 02:57:30;;;;;;;17.17;4.35;;;7.80;99.90;;;;;;5111874;27;20050;-68
2022/11/25 02:59:56;;;;;;;10.93;3.30;;;7.80;99.90;;;;;;5129829;27;20385;-68
2022/11/25 03:02:21;;;;;;;14.05;3.83;;;7.80;99.90;;;;;;5129366;27;20041;-68
2022/11/25 03:04:47;;;;;;;17.35;3.72;;;7.80;99.90;;;;;;5111627;27;20053;-68
2022/11/25 03:07:13;;;;;;;14.38;3.45;;;7.80;99.90;;;;;;5126301;27;20043;-68
2022/11/25 03:09:38;;;;;;;15.32;3.80;;;7.80;99.90;;;;;;5129821;27;20038;-68
2022/11/25 03:12:19;;;;;;;16.27;3.90;;;7.80;99.90;;;;;;5126836;27;20412;-68
2022/11/25 03:14:45;;;;;;;13.75;3.80;;;7.80;99.90;;;;;;5122895;27;20116;-68
2022/11/25 03:17:10;;;;;;;12.50;3.80;;;7.80;99.90;;;;;;5113015;27;20509;-68
2022/11/25 03:19:36;;;;;;;15.15;4.25;;;7.80;99.90;;;;;;5115415;27;20393;-68
2022/11/25 03:22:02;;;;;;;17.85;4.70;;;7.80;99.90;;;;;;5098070;27;20027;-68
2022/11/25 03:24:28;;;;;;;17.23;4.53;;;7.80;99.90;;;;;;5116005;27;20043;-68
2022/11/25 03:26:54;;;;;;;12.98;4.00;;;7.90;99.90;;;;;;5113611;27;20035;-68
2022/11/25 03:29:20;;;;;;;17.42;4.53;;;7.90;99.90;;;;;;5116055;27;20605;-68
2022/11/25 03:31:45;;;;;;;15.05;4.10;;;7.90;99.90;;;;;;5109866;27;20039;-68
2022/11/25 03:34:11;;;;;;;14.38;4.30;;;7.90;99.90;;;;;;5115009;27;20031;-68
2022/11/25 03:36:38;;;;;;;14.65;4.45;;;7.90;99.90;;;;;;5114827;27;20047;-68
2022/11/25 03:39:04;;;;;;;20.58;4.10;;;7.90;99.90;;;;;;5115616;27;20458;-68
2022/11/25 03:41:29;;;;;;;18.88;4.85;;;7.90;99.90;;;;;;5114539;27;20070;-68
2022/11/25 03:43:55;;;;;;;17.13;4.05;;;7.90;99.90;;;;;;5113938;27;20046;-68
2022/11/25 03:46:20;;;;;;;14.52;4.40;;;7.80;99.90;;;;;;5115657;27;20035;-68
2022/11/25 03:48:46;;;;;;;18.35;4.97;;;7.90;99.90;;;;;;5097235;27;20046;-68
2022/11/25 03:51:12;;;;;;;18.40;4.65;;;7.90;99.90;;;;;;5115459;27;20035;-68
2022/11/25 03:53:37;;;;;;;14.10;4.03;;;7.90;99.90;;;;;;5115326;27;20039;-68
2022/11/25 03:56:03;;;;;;;15.52;4.35;;;7.90;99.90;;;;;;5115469;27;20043;-68
2022/11/25 03:58:29;;;;;;;18.15;4.35;;;7.90;99.90;;;;;;5097397;27;20057;-68
2022/11/25 04:00:59;;;;;;;20.05;4.30;;;8.00;99.90;;;;;;5115193;27;20393;-68
2022/11/25 04:03:24;;;;;;;17.95;4.40;;;8.00;99.90;;;;;;5108790;27;20107;-68
2022/11/25 04:05:50;;;;;;;19.65;4.80;;;8.00;99.90;;;;;;5114647;27;20476;-66
2022/11/25 04:08:16;;;;;;;15.13;3.97;;;8.00;99.90;;;;;;5114572;27;20083;-68
2022/11/25 04:10:41;;;;;;;18.13;4.18;;;8.00;99.90;;;;;;5095874;27;20089;-68
2022/11/25 04:13:07;;;;;;;15.35;4.15;;;8.00;99.90;;;;;;5114063;27;20078;-68
2022/11/25 04:15:32;;;;;;;14.80;4.43;;;8.00;99.90;;;;;;5110737;27;20082;-67
2022/11/25 04:17:58;;;;;;;18.05;4.22;;;8.00;99.90;;;;;;5112342;27;20062;-68
2022/11/25 04:20:24;;;;;;;20.83;4.35;;;8.00;99.90;;;;;;5114048;27;20046;-68
2022/11/25 04:22:49;;;;;;;16.35;4.05;;;8.00;99.90;;;;;;5114986;27;20092;-67
2022/11/25 04:25:15;;;;;;;15.52;4.30;;;8.00;99.90;;;;;;5114021;27;20127;-68
2022/11/25 04:27:41;;;;;;;15.50;4.40;;;8.00;99.90;;;;;;5110569;27;20031;-67
2022/11/25 04:30:07;;;;;;;19.60;5.65;;;8.00;99.90;;;;;;5107964;27;20541;-68
2022/11/25 04:32:33;;;;;;;18.83;5.03;;;8.00;99.90;;;;;;5092738;27;20444;-68
2022/11/25 04:34:58;;;;;;;19.92;5.28;;;8.10;99.90;;;;;;5114707;27;20043;-68
2022/11/25 04:37:24;;;;;;;16.80;4.60;;;8.10;99.90;;;;;;5107070;27;20109;-68
2022/11/25 04:39:49;;;;;;;13.25;3.95;;;8.10;99.90;;;;;;5108784;28;20039;-68
2022/11/25 04:42:30;;;;;;;15.57;4.03;;;8.10;99.90;;;;;;5109563;27;20097;-68
2022/11/25 04:44:56;;;;;;;14.27;4.20;;;8.00;99.90;;;;;;5114088;27;20060;-68
2022/11/25 04:47:22;;;;;;;20.20;4.75;;;8.10;99.90;;;;;;5112025;27;20122;-68
2022/11/25 04:49:47;;;;;;;16.55;4.57;;;8.10;99.90;;;;;;5110738;27;20027;-68
2022/11/25 04:52:13;;;;;;;16.60;4.25;;;8.00;99.90;;;;;;5110875;27;20035;-68
2022/11/25 04:54:39;;;;;;;15.57;4.55;;;8.10;99.90;;;;;;5093405;27;20074;-68
2022/11/25 04:57:04;;;;;;;12.73;3.80;;;8.10;99.90;;;;;;5109726;28;20035;-68
2022/11/25 04:59:39;;;;;;;16.60;4.10;;;8.10;99.90;;;;;;5126459;27;20043;-68
2022/11/25 05:02:25;;;;;;;13.40;4.55;;;8.10;99.90;;;;;;5113775;27;20035;-68
2022/11/25 05:04:53;;;;;;;12.90;4.35;;;8.00;99.90;;;;;;5109264;27;20100;-67
2022/11/25 05:07:21;;;;;;;14.13;4.47;;;8.00;99.90;;;;;;5095960;27;20035;-68
2022/11/25 05:09:47;;;;;;;12.27;4.28;;;8.00;99.90;;;;;;5110579;27;20039;-68
2022/11/25 05:12:16;;;;;;;15.32;4.65;;;8.00;99.90;;;;;;5112435;27;20092;-67
2022/11/25 05:14:41;;;;;;;19.30;4.75;;;8.00;99.90;;;;;;5095308;27;20416;-68
2022/11/25 05:17:13;;;;;;;14.57;5.10;;;8.00;99.90;;;;;;5112548;27;20039;-69
2022/11/25 05:19:39;;;;;;;16.53;4.60;;;8.00;99.90;;;;;;5112295;27;20047;-68
2022/11/25 05:22:05;;;;;;;11.40;3.85;;;8.10;99.90;;;;;;5113374;27;20035;-68
2022/11/25 05:24:30;;;;;;;19.40;4.60;;;8.10;99.90;;;;;;5110223;27;20087;-68
2022/11/25 05:26:56;;;;;;;13.98;4.30;;;8.10;99.90;;;;;;5113186;27;20043;-68
2022/11/25 05:29:22;;;;;;;15.57;3.85;;;8.10;99.90;;;;;;5112513;27;20038;-68
2022/11/25 05:31:48;;;;;;;21.55;4.50;;;8.10;99.90;;;;;;5113275;27;20386;-68
2022/11/25 05:34:14;;;;;;;13.73;4.03;;;8.10;99.90;;;;;;5113178;27;20035;-68
2022/11/25 05:36:39;;;;;;;16.05;4.07;;;8.10;99.90;;;;;;5110379;27;20104;-68
2022/11/25 05:39:05;;;;;;;17.35;5.00;;;8.10;99.90;;;;;;5113241;27;20031;-69
2022/11/25 05:41:30;;;;;;;16.15;4.60;;;8.10;99.90;;;;;;5102858;27;20078;-68
2022/11/25 05:43:56;;;;;;;17.35;4.00;;;8.10;99.90;;;;;;5111957;27;20039;-69
2022/11/25 05:46:22;;;;;;;16.83;4.55;;;8.10;99.90;;;;;;5113428;27;20035;-68
2022/11/25 05:48:52;;;;;;;16.00;4.03;;;8.10;99.90;;;;;;5112142;27;20034;-67
2022/11/25 05:51:18;;;;;;;14.73;4.45;;;8.10;99.90;;;;;;5107469;28;20409;-67
2022/11/25 05:53:43;;;;;;;12.75;3.65;;;8.10;99.90;;;;;;5112063;28;20031;-68
2022/11/25 05:56:09;;;;;;;16.20;4.07;;;8.20;99.90;;;;;;5113351;28;20043;-68
2022/11/25 05:58:35;;;;;;;13.00;3.58;;;8.20;99.90;;;;;;5112139;27;20035;-68
2022/11/25 06:01:09;;;;;;;20.63;3.83;;;8.20;99.90;;;;;;5112215;28;20043;-68
2022/11/25 06:03:35;;;;;;;13.90;3.70;;;8.20;99.90;;;;;;5090881;28;20047;-69
2022/11/25 06:06:01;;;;;;;14.48;3.95;;;8.20;99.90;;;;;;5109521;28;20450;-68
2022/11/25 06:08:27;;;;;;;14.85;4.03;;;8.20;99.90;;;;;;5105561;28;20124;-68
2022/11/25 06:10:53;;;;;;;11.82;3.67;;;8.20;99.90;;;;;;5107658;28;20039;-68
2022/11/25 06:13:19;;;;;;;13.38;3.53;;;8.20;99.90;;;;;;5108924;28;20047;-68
2022/11/25 06:15:45;;;;;;;10.63;3.30;;;8.20;99.90;;;;;;5108532;28;20126;-68
2022/11/25 06:18:13;;;;;;;12.35;3.22;;;8.20;99.90;;;;;;5108592;28;20073;-68
2022/11/25 06:20:39;;;;;;;13.48;2.83;;;8.20;99.90;;;;;;5108363;28;20389;-68
2022/11/25 06:23:06;;;;;;;11.80;2.90;;;8.30;99.90;;;;;;5107287;28;20047;-68
2022/11/25 06:25:32;;;;;;;11.77;2.85;;;8.30;99.90;;;;;;5109350;28;20040;-68
2022/11/25 06:27:58;;;;;;;13.77;3.15;;;8.30;99.90;;;;;;5106966;28;20032;-66
2022/11/25 06:30:24;;;;;;;16.02;3.35;;;8.30;99.90;;;;;;5090779;28;20463;-66
2022/11/25 06:32:50;;;;;;;8.88;2.90;;;8.30;99.90;;;;;;5108173;28;20409;-68
2022/11/25 06:35:16;;;;;;;12.93;3.28;;;8.30;99.90;;;;;;5106781;28;20067;-68
2022/11/25 06:37:41;;;;;;;15.27;3.42;;;8.30;99.90;;;;;;5107048;28;20078;-68
2022/11/25 06:40:08;;;;;;;13.25;2.88;;;8.30;99.90;;;;;;5104267;28;20054;-68
2022/11/25 06:42:33;;;;;;;13.18;2.75;;;8.30;99.90;;;;;;5107829;28;20068;-69
2022/11/25 06:44:59;;;;;;;12.88;3.33;;;8.20;99.90;;;;;;5105294;28;20069;-68
2022/11/25 06:47:25;;;;;;;10.65;2.65;;;8.20;99.90;;;;;;5097539;28;20042;-68
2022/11/25 06:49:50;;;;;;;9.15;2.88;;;8.20;99.90;;;;;;5109620;28;20036;-69
2022/11/25 06:52:16;;;;;;;11.18;2.45;;;8.10;99.90;;;;;;5112431;28;20027;-69
2022/11/25 06:54:42;;;;;;;13.38;2.67;;;8.10;99.90;;;;;;5086174;28;20062;-70
2022/11/25 06:57:15;;;;;;;9.82;2.60;;;8.10;99.90;;;;;;5110212;28;20039;-70
2022/11/25 06:59:40;;;;;;;12.95;3.03;;;8.10;99.90;;;;;;5112416;28;20514;-68
2022/11/25 07:02:09;;;;;;;10.68;2.60;;;8.00;99.90;;;;;;5112406;28;20166;-69
2022/11/25 07:04:34;;;;;;;13.82;2.85;;;8.00;99.90;;;;;;5094686;28;20136;-68
2022/11/25 07:07:00;;;;;;;10.90;2.92;;;8.00;99.90;;;;;;5112703;28;20063;-68
2022/11/25 07:09:26;;;;;;;14.02;2.88;;;7.90;99.90;;;;;;5096300;28;20549;-68
2022/11/25 07:11:51;;;;;;;7.90;2.22;;;7.90;99.90;;;;;;5112728;28;20042;-69
2022/11/25 07:14:17;;;;;;;9.85;2.92;;;7.90;99.90;;;;;;5095561;28;20086;-68
2022/11/25 07:16:44;;;;;;;13.75;3.20;;;7.80;99.90;;;;;;5095047;28;20060;-69
2022/11/25 07:19:12;;;;;;;10.52;2.50;;;7.80;99.90;;;;;;5112567;28;20431;-68
2022/11/25 07:21:38;;;;;;;7.97;2.72;;;7.80;99.90;;;;;;5111606;28;20490;-68
2022/11/25 07:24:06;;;;;;;11.75;2.55;;;7.80;99.90;;;;;;5111304;28;20055;-69
2022/11/25 07:26:35;;;;;;;9.27;2.60;;;7.80;99.90;;;;;;5112343;28;20132;-69
2022/11/25 07:29:03;;;;;;;8.38;2.80;;;7.70;99.90;;;;;;5095099;28;20067;-68
2022/11/25 07:31:35;;;;;;;15.05;3.28;;;7.70;99.90;;;;;;5112147;28;20110;-69
2022/11/25 07:34:05;;;;;;;9.05;2.58;;;7.70;99.90;;;;;;5112310;28;20050;-67
2022/11/25 07:36:32;;;;;;;8.18;2.38;;;7.70;99.90;;;;;;5112164;28;20654;-68
2022/11/25 07:39:00;;;;;;;10.48;2.70;;;7.70;99.90;;;;;;5112416;28;20043;-68
2022/11/25 07:41:26;;;;;;;5.03;2.10;;;7.70;99.90;;;;;;5111923;28;20130;-69
2022/11/25 07:43:55;;;;;;;8.20;2.00;;;7.70;99.90;;;;;;5112337;28;20047;-69
2022/11/25 07:46:25;;;;;;;7.47;2.20;;;7.70;99.90;;;;;;5092880;28;20439;-69
2022/11/25 07:48:52;;;;;;;8.43;2.88;;;7.70;99.90;;;;;;5112345;28;20411;-69
2022/11/25 07:51:23;;;;;;;9.30;2.15;;;7.60;99.90;;;;;;5112062;28;20028;-69
2022/11/25 07:53:50;;;;;;;5.85;2.05;;;7.60;99.90;;;;;;5112040;28;20047;-68
2022/11/25 07:56:17;;;;;;;7.07;2.78;;;7.60;99.90;;;;;;5095021;28;20058;-68
2022/11/25 07:58:43;;;;;;;9.15;2.72;;;7.60;99.90;;;;;;5111961;28;20044;-69
2022/11/25 08:01:11;;;;;;;12.18;2.55;;;7.60;99.90;;;;;;5111993;28;20031;-69
2022/11/25 08:03:38;;;;;;;9.93;2.40;;;7.60;99.90;;;;;;5111417;28;20065;-69
2022/11/25 08:06:07;;;;;;;8.25;2.67;;;7.60;99.90;;;;;;5111652;28;20042;-69
2022/11/25 08:08:33;;;;;;;9.40;2.50;;;7.70;99.90;;;;;;5112039;28;20496;-69
2022/11/25 08:10:59;;;;;;;11.20;3.17;;;7.70;99.90;;;;;;5112544;28;20532;-69
2022/11/25 08:13:25;;;;;;;6.38;2.58;;;7.70;99.90;;;;;;5111331;28;20043;-69
2022/11/25 08:15:51;;;;;;;11.75;3.40;;;7.80;99.90;;;;;;5093200;28;20500;-69
2022/11/25 08:18:17;;;;;;;7.55;2.80;;;7.80;99.90;;;;;;5094661;28;20115;-69
2022/11/25 08:20:43;;;;;;;6.13;2.80;;;7.80;99.90;;;;;;5111162;28;20047;-70
2022/11/25 08:23:09;;;;;;;9.45;3.88;;;7.90;99.90;;;;;;5088355;28;20054;-69
2022/11/25 08:25:42;;;;;;;10.98;3.50;;;8.00;99.90;;;;;;5110733;28;20038;-69
2022/11/25 08:28:08;;;;;;;10.10;3.42;;;8.10;99.90;;;;;;5110768;28;20081;-68
2022/11/25 08:30:34;;;;;;;9.38;3.40;;;8.10;99.90;;;;;;5093697;28;20465;-69
2022/11/25 08:33:00;;;;;;;10.07;3.40;;;8.20;99.90;;;;;;5111072;28;20039;-67
2022/11/25 08:35:26;;;;;;;8.38;3.13;;;8.20;99.90;;;;;;5111097;28;20390;-67
2022/11/25 08:37:52;;;;;;;10.13;3.10;;;8.30;99.90;;;;;;5110636;28;20052;-68
2022/11/25 08:40:18;;;;;;;9.88;3.47;;;8.30;99.90;;;;;;5106424;28;20047;-67
2022/11/25 08:42:43;;;;;;;12.63;3.28;;;8.40;99.90;;;;;;5110828;28;20466;-67
2022/11/25 08:45:09;;;;;;;10.35;3.75;;;8.40;99.90;;;;;;5110560;28;20030;-67
2022/11/25 08:47:35;;;;;;;10.85;3.25;;;8.40;99.90;;;;;;5110463;28;20039;-67
2022/11/25 08:50:04;;;;;;;7.53;3.15;;;8.40;99.90;;;;;;5110621;28;20044;-67
2022/11/25 08:52:30;;;;;;;8.43;3.28;;;8.40;99.90;;;;;;5110187;28;20044;-67
2022/11/25 08:54:55;;;;;;;7.97;3.50;;;8.40;99.90;;;;;;5109983;28;20131;-67
2022/11/25 08:57:21;;;;;;;9.38;3.80;;;8.50;99.90;;;;;;5110328;28;20043;-69
2022/11/25 08:59:46;;;;;;;8.43;3.50;;;8.50;99.90;;;;;;5110268;28;20035;-66
2022/11/25 09:02:15;;;;;;;9.00;3.60;;;8.50;99.90;;;;;;5109005;28;20047;-68
2022/11/25 09:04:41;;;;;;;9.65;3.67;;;8.50;99.90;;;;;;5110040;28;20436;-68
2022/11/25 09:07:07;;;;;;;7.38;3.60;;;8.60;99.90;;;;;;5109905;28;20040;-67
2022/11/25 09:09:32;;;;;;;13.52;4.10;;;8.70;99.90;;;;;;5110039;28;20032;-68
2022/11/25 09:11:58;;;;;;;10.63;3.55;;;8.80;99.90;;;;;;5092892;28;20486;-68
2022/11/25 09:14:24;;;;;;;10.20;3.40;;;8.90;99.90;;;;;;5109767;28;20401;-68
2022/11/25 09:16:49;;;;;;;6.72;3.20;;;8.90;99.90;;;;;;5110179;28;20153;-68
2022/11/25 09:19:15;;;;;;;10.43;4.13;;;9.10;99.90;;;;;;5110180;28;20060;-68
2022/11/25 09:21:42;;;;;;;9.40;4.22;;;9.10;99.90;;;;;;5109626;28;20056;-68
2022/11/25 09:24:08;;;;;;;8.38;3.78;;;9.30;99.90;;;;;;5109710;28;20094;-68
2022/11/25 09:26:35;;;;;;;7.43;3.80;;;9.40;99.90;;;;;;5109776;28;20035;-68
2022/11/25 09:29:02;;;;;;;7.85;3.10;;;9.50;99.90;;;;;;5110403;28;20502;-68
2022/11/25 09:31:27;;;;;;;7.82;3.85;;;9.70;99.90;;;;;;5109720;28;20035;-68
2022/11/25 09:33:54;;;;;;;8.13;3.15;;;9.90;99.90;;;;;;5109626;28;20418;-68
2022/11/25 09:36:22;;;;;;;6.50;2.47;;;9.90;99.90;;;;;;5093161;28;20595;-68
2022/11/25 09:38:47;;;;;;;8.30;2.97;;;10.00;99.90;;;;;;5109673;28;20048;-68
2022/11/25 09:47:36;;;;;;;4.90;3.05;;;10.40;99.90;;;;;;5109528;28;20040;-69
2022/11/25 09:50:25;;;;;;;8.57;3.35;;;10.60;99.90;;;;;;5092850;28;20028;-68
2022/11/25 09:53:03;;;;;;;6.28;2.70;;;10.80;99.90;;;;;;5092122;28;20070;-67
2022/11/25 09:55:37;;;;;;;7.80;2.30;;;10.90;99.90;;;;;;5109356;28;20032;-68
2022/11/25 09:58:31;;;;;;;7.85;2.33;;;11.00;99.90;;;;;;5109983;28;20482;-68
2022/11/25 10:00:57;;;;;;;6.00;2.30;;;11.00;99.90;;;;;;5109454;28;20036;-68
2022/11/25 10:03:49;;;;;;;6.30;2.40;;;11.10;99.90;;;;;;5111649;28;20039;-68
2022/11/25 10:06:25;;;;;;;8.15;2.85;;;11.20;99.90;;;;;;5031013;28;20037;-68
2022/11/25 10:09:14;;;;;;;6.88;2.30;;;11.20;99.90;;;;;;5030854;28;20053;-69
2022/11/25 10:11:53;;;;;;;8.70;2.78;;;11.20;99.90;;;;;;5014201;28;20083;-68
2022/11/25 10:14:22;;;;;;;10.05;3.30;;;11.20;99.90;;;;;;5012416;28;20072;-68
2022/11/25 10:17:06;;;;;;;7.13;2.25;;;11.20;99.90;;;;;;5029960;28;20044;-67
2022/11/25 10:19:38;;;;;;;6.18;2.10;;;11.10;99.90;;;;;;5028921;28;20048;-68
2022/11/25 10:22:23;;;;;;;7.18;2.13;;;11.00;99.90;;;;;;5030652;28;20076;-67
2022/11/25 10:24:52;;;;;;;6.72;2.85;;;10.90;99.90;;;;;;5031348;28;20049;-67
2022/11/25 10:27:26;;;;;;;6.93;1.88;;;10.80;99.90;;;;;;5033519;28;20041;-68
2022/11/25 10:30:11;;;;;;;9.27;1.95;;;10.80;99.90;;;;;;5017279;28;20037;-68
2022/11/25 10:32:43;;;;;;;7.78;2.10;;;10.80;99.90;;;;;;5051208;28;20067;-68
2022/11/25 10:35:39;;;;;;;6.60;2.28;;;10.70;99.90;;;;;;5034652;28;20037;-68
2022/11/25 10:38:11;;;;;;;7.45;2.17;;;10.60;99.90;;;;;;5033258;28;20184;-69
2022/11/25 10:40:37;;;;;;;10.50;2.40;;;10.70;99.90;;;;;;5051360;28;20041;-68
2022/11/25 10:43:12;;;;;;;6.00;2.22;;;10.80;99.90;;;;;;5079832;27;20409;-68
2022/11/25 10:45:45;;;;;;;8.50;2.28;;;10.80;99.90;;;;;;5116392;27;20043;-69
2022/11/25 10:48:34;;;;;;;10.07;2.50;;;10.70;99.90;;;;;;5116051;27;20038;-68
2022/11/25 10:51:06;;;;;;;6.55;3.10;;;10.60;99.90;;;;;;5116098;27;20039;-68
2022/11/25 10:53:31;;;;;;;5.05;2.40;;;10.40;99.90;;;;;;5116179;27;20039;-69
2022/11/25 10:56:10;;;;;;;8.98;2.30;;;10.30;99.90;;;;;;5116128;27;20122;-68
2022/11/25 10:58:38;;;;;;;8.50;3.00;;;10.20;99.90;;;;;;5116301;27;20081;-67
2022/11/25 11:01:13;;;;;;;6.78;2.70;;;10.20;99.90;;;;;;5095118;27;20050;-68
2022/11/25 11:03:39;;;;;;;6.80;2.40;;;10.30;99.90;;;;;;5115969;27;20043;-68
2022/11/25 11:06:05;;;;;;;8.43;2.47;;;10.40;99.90;;;;;;5116338;27;20053;-68
2022/11/25 11:08:39;;;;;;;7.53;2.40;;;10.60;99.90;;;;;;5116214;27;20027;-68
2022/11/25 11:11:18;;;;;;;5.82;2.45;;;10.60;99.90;;;;;;5115570;27;20045;-68
2022/11/25 11:13:45;;;;;;;5.82;2.55;;;10.70;99.90;;;;;;5114116;27;20043;-68
2022/11/25 11:16:35;;;;;;;7.82;2.50;;;10.80;99.90;;;;;;5098309;27;20035;-68
2022/11/25 11:19:01;;;;;;;8.70;2.33;;;10.90;99.90;;;;;;5114317;27;20062;-69
2022/11/25 11:21:31;;;;;;;8.40;2.85;;;12.10;99.90;;;;;;5115599;27;20039;-68
2022/11/25 11:23:58;;;;;;;5.95;2.30;;;12.60;99.90;;;;;;5115642;27;20043;-69
2022/11/25 11:26:34;;;;;;;7.50;2.17;;;12.80;99.90;;;;;;5115545;27;20374;-69
2022/11/25 11:29:23;;;;;;;8.95;3.15;;;12.40;99.90;;;;;;5108285;27;20039;-68
2022/11/25 11:31:58;;;;;;;10.43;2.50;;;12.20;99.90;;;;;;5101605;27;20051;-68
2022/11/25 11:34:23;;;;;;;8.38;2.38;;;12.30;99.90;;;;;;5113134;27;20106;-69
2022/11/25 11:37:19;;;;;;;8.25;2.17;;;12.00;99.90;;;;;;5114838;27;20122;-67
2022/11/25 11:40:24;;;;;;;11.32;2.60;;;11.60;99.90;;;;;;5115168;27;20358;-68
2022/11/25 11:43:01;;;;;;;9.60;2.58;;;11.50;99.90;;;;;;5115292;27;20508;-68
2022/11/25 11:45:30;;;;;;;10.55;2.40;;;11.60;99.90;;;;;;5111601;27;20035;-68
2022/11/25 11:48:38;;;;;;;9.70;3.30;;;11.60;99.90;;;;;;5115072;27;20066;-68
2022/11/25 11:51:15;;;;;;;8.30;2.40;;;13.00;99.90;;;;;;5033413;28;20056;-69
2022/11/25 11:54:06;;;;;;;8.48;2.20;;;12.70;99.90;;;;;;5033247;28;20114;-69
2022/11/25 11:56:43;;;;;;;8.30;2.38;;;12.60;99.90;;;;;;5049859;28;20041;-68
2022/11/25 11:59:35;;;;;;;8.10;2.15;;;12.30;99.90;;;;;;5033276;28;20051;-68
2022/11/25 12:02:04;;;;;;;;;;;12.10;99.90;;;;;;5050097;28;20115;-68
2022/11/25 12:04:35;;;;;;;8.82;2.40;;;11.90;99.90;;;;;;5029056;28;19928;-68
2022/11/25 12:07:08;;;;;;;9.37;2.93;;;11.70;99.90;;;;;;5048526;28;20061;-68
2022/11/25 12:09:43;;;;;;;6.85;2.70;;;11.60;99.90;;;;;;5032529;28;20321;-69
2022/11/25 12:12:15;;;;;;;8.75;2.60;;;11.60;99.90;;;;;;5048954;28;20551;-69
2022/11/25 12:14:44;;;;;;;11.40;2.92;;;11.60;99.90;;;;;;5032150;28;20127;-68
2022/11/25 12:17:19;;;;;;;10.93;3.42;;;11.80;99.90;;;;;;5030917;28;20045;-69
2022/11/25 12:19:59;;;;;;;11.13;2.90;;;12.50;99.90;;;;;;5031821;28;20061;-69
2022/11/25 12:22:41;;;;;;;10.82;2.67;;;13.00;99.90;;;;;;5028807;28;20037;-68
2022/11/25 12:25:18;;;;;;;9.37;2.93;;;13.40;99.90;;;;;;5032072;28;20047;-68
2022/11/25 12:27:48;;;;;;;11.25;2.78;;;12.90;99.90;;;;;;5113049;27;20412;-67
2022/11/25 12:30:16;;;;;;;8.02;2.55;;;12.70;99.90;;;;;;5113645;27;20031;-68
2022/11/25 12:33:00;;;;;;;11.95;2.50;;;12.70;99.90;;;;;;5114077;27;20043;-68
2022/11/25 12:35:35;;;;;;;10.52;2.10;;;12.80;99.90;;;;;;5113828;27;20031;-68
2022/11/25 12:38:12;;;;;;;12.88;2.33;;;12.60;99.90;;;;;;5113925;27;20473;-69
2022/11/25 12:40:47;;;;;;;12.35;2.30;;;12.10;99.90;;;;;;5113362;27;20039;-69
2022/11/25 12:43:27;;;;;;;9.48;2.67;;;12.00;99.90;;;;;;5113750;27;20067;-68
2022/11/25 12:46:26;;;;;;;12.65;2.40;;;12.20;99.90;;;;;;5113919;27;20103;-69
2022/11/25 12:48:55;;;;;;;11.95;2.22;;;12.40;99.90;;;;;;5014726;28;20096;-67
2022/11/25 12:51:51;;;;;;;10.50;2.42;;;12.50;99.90;;;;;;5031736;28;20071;-68
2022/11/25 12:54:22;;;;;;;13.00;2.42;;;12.50;99.90;;;;;;5031715;28;20094;-68
2022/11/25 12:56:50;;;;;;;12.52;2.88;;;12.40;99.90;;;;;;5015522;28;20071;-69
2022/11/25 12:59:34;;;;;;;9.80;2.78;;;12.70;99.90;;;;;;5031851;28;20044;-68
2022/11/25 13:02:29;;;;;;;9.65;2.38;;;12.30;99.90;;;;;;5031022;28;20053;-68
2022/11/25 13:05:17;;;;;;;11.30;2.17;;;12.20;99.90;;;;;;5031271;28;20049;-68
2022/11/25 13:07:54;;;;;;;9.60;2.00;;;11.90;99.90;;;;;;5048332;28;20048;-68
2022/11/25 13:10:38;;;;;;;10.77;2.70;;;11.80;99.90;;;;;;5048067;28;20153;-69